sensor_id;sensor_type;location;lat;lon;timestamp;pressure;altitude;pressure_sealevel;temperature;humidity
61384;BME280;63511;49.346;8.798;2023-03-16T00:01:22;100737.91;;;4.16;83.58
61384;BME280;63511;49.346;8.798;2023-03-16T00:03:48;100735.41;;;4.16;83.09
61384;BME280;63511;49.346;8.798;2023-03-16T00:06:15;100736.72;;;4.30;82.69
61384;BME280;63511;49.346;8.798;2023-03-16T00:08:43;100732.16;;;4.09;83.14
61384;BME280;63511;49.346;8.798;2023-03-16T00:11:10;100726.56;;;4.20;82.88
61384;BME280;63511;49.346;8.798;2023-03-16T00:13:37;100738.94;;;4.36;82.13
61384;BME280;63511;49.346;8.798;2023-03-16T00:16:04;100735.22;;;4.06;82.74
61384;BME280;63511;49.346;8.798;2023-03-16T00:18:33;100735.09;;;4.13;82.54
61384;BME280;63511;49.346;8.798;2023-03-16T00:21:04;100746.22;;;4.00;83.27
61384;BME280;63511;49.346;8.798;2023-03-16T00:23:32;100735.84;;;4.12;82.52
61384;BME280;63511;49.346;8.798;2023-03-16T00:26:00;100728.78;;;4.17;82.40
61384;BME280;63511;49.346;8.798;2023-03-16T00:28:29;100740.28;;;4.23;81.98
61384;BME280;63511;49.346;8.798;2023-03-16T00:30:59;100741.88;;;4.23;82.33
61384;BME280;63511;49.346;8.798;2023-03-16T00:33:25;100735.22;;;4.15;82.75
61384;BME280;63511;49.346;8.798;2023-03-16T00:35:53;100737.34;;;4.27;82.57
61384;BME280;63511;49.346;8.798;2023-03-16T00:38:27;100739.78;;;4.02;83.61
61384;BME280;63511;49.346;8.798;2023-03-16T00:40:54;100743.59;;;4.07;83.85
61384;BME280;63511;49.346;8.798;2023-03-16T00:43:21;100737.16;;;4.17;83.52
61384;BME280;63511;49.346;8.798;2023-03-16T00:45:47;100733.63;;;4.15;82.80
61384;BME280;63511;49.346;8.798;2023-03-16T00:48:14;100727.63;;;4.13;83.71
61384;BME280;63511;49.346;8.798;2023-03-16T00:50:41;100733.22;;;4.19;83.07
61384;BME280;63511;49.346;8.798;2023-03-16T00:53:09;100723.78;;;4.17;83.09
61384;BME280;63511;49.346;8.798;2023-03-16T00:55:36;100722.63;;;4.22;82.88
61384;BME280;63511;49.346;8.798;2023-03-16T00:58:02;100719.56;;;4.24;82.64
61384;BME280;63511;49.346;8.798;2023-03-16T01:00:38;100712.22;;;4.35;82.14
61384;BME280;63511;49.346;8.798;2023-03-16T01:03:05;100706.94;;;4.40;81.93
61384;BME280;63511;49.346;8.798;2023-03-16T01:05:32;100716.28;;;4.08;82.54
61384;BME280;63511;49.346;8.798;2023-03-16T01:07:58;100716.91;;;4.32;82.97
61384;BME280;63511;49.346;8.798;2023-03-16T01:10:28;100712.34;;;4.27;82.14
61384;BME280;63511;49.346;8.798;2023-03-16T01:12:54;100710.13;;;4.56;81.23
61384;BME280;63511;49.346;8.798;2023-03-16T01:15:21;100712.66;;;4.48;81.18
61384;BME280;63511;49.346;8.798;2023-03-16T01:17:48;100715.13;;;4.31;82.14
61384;BME280;63511;49.346;8.798;2023-03-16T01:20:16;100711.78;;;4.56;81.38
61384;BME280;63511;49.346;8.798;2023-03-16T01:22:43;100714.28;;;4.39;81.42
61384;BME280;63511;49.346;8.798;2023-03-16T01:25:11;100704.13;;;4.63;80.82
61384;BME280;63511;49.346;8.798;2023-03-16T01:27:39;100691.78;;;4.64;80.22
61384;BME280;63511;49.346;8.798;2023-03-16T01:30:07;100695.72;;;4.28;81.63
61384;BME280;63511;49.346;8.798;2023-03-16T01:32:36;100695.69;;;4.11;82.68
61384;BME280;63511;49.346;8.798;2023-03-16T01:35:04;100698.06;;;4.26;82.45
61384;BME280;63511;49.346;8.798;2023-03-16T01:37:33;100696.13;;;4.07;83.16
61384;BME280;63511;49.346;8.798;2023-03-16T01:40:00;100700.19;;;3.89;84.72
61384;BME280;63511;49.346;8.798;2023-03-16T01:42:30;100700.28;;;4.32;84.44
61384;BME280;63511;49.346;8.798;2023-03-16T01:44:59;100711.47;;;4.53;81.94
61384;BME280;63511;49.346;8.798;2023-03-16T01:47:29;100698.81;;;4.34;81.59
61384;BME280;63511;49.346;8.798;2023-03-16T01:50:03;100700.72;;;4.37;81.89
61384;BME280;63511;49.346;8.798;2023-03-16T01:52:33;100704.28;;;4.39;82.11
61384;BME280;63511;49.346;8.798;2023-03-16T01:55:01;100709.25;;;4.30;82.33
61384;BME280;63511;49.346;8.798;2023-03-16T01:57:31;100701.75;;;4.30;83.00
61384;BME280;63511;49.346;8.798;2023-03-16T02:00:05;100695.00;;;4.55;81.49
61384;BME280;63511;49.346;8.798;2023-03-16T02:02:34;100686.91;;;4.66;81.30
61384;BME280;63511;49.346;8.798;2023-03-16T02:05:07;100672.63;;;4.56;81.42
61384;BME280;63511;49.346;8.798;2023-03-16T02:07:39;100675.75;;;4.45;81.63
61384;BME280;63511;49.346;8.798;2023-03-16T02:10:10;100675.75;;;4.45;81.55
61384;BME280;63511;49.346;8.798;2023-03-16T02:12:38;100670.72;;;4.71;80.54
61384;BME280;63511;49.346;8.798;2023-03-16T02:15:07;100662.78;;;4.41;82.27
61384;BME280;63511;49.346;8.798;2023-03-16T02:17:34;100665.88;;;4.30;82.11
61384;BME280;63511;49.346;8.798;2023-03-16T02:20:12;100659.41;;;4.49;81.21
61384;BME280;63511;49.346;8.798;2023-03-16T02:22:43;100653.66;;;4.58;81.00
61384;BME280;63511;49.346;8.798;2023-03-16T02:25:14;100658.97;;;4.53;80.29
61384;BME280;63511;49.346;8.798;2023-03-16T02:27:47;100654.41;;;4.32;81.44
61384;BME280;63511;49.346;8.798;2023-03-16T02:30:19;100666.59;;;4.11;82.32
61384;BME280;63511;49.346;8.798;2023-03-16T02:32:48;100669.81;;;4.02;84.66
61384;BME280;63511;49.346;8.798;2023-03-16T02:35:16;100661.31;;;4.17;84.03
61384;BME280;63511;49.346;8.798;2023-03-16T02:37:43;100642.91;;;3.99;83.11
61384;BME280;63511;49.346;8.798;2023-03-16T02:40:21;100658.22;;;4.02;83.45
61384;BME280;63511;49.346;8.798;2023-03-16T02:42:50;100661.16;;;4.07;83.15
61384;BME280;63511;49.346;8.798;2023-03-16T02:45:21;100649.84;;;4.19;82.36
61384;BME280;63511;49.346;8.798;2023-03-16T02:47:52;100639.41;;;4.14;82.37
61384;BME280;63511;49.346;8.798;2023-03-16T02:50:19;100641.03;;;4.48;81.21
61384;BME280;63511;49.346;8.798;2023-03-16T02:52:45;100638.50;;;4.31;82.19
61384;BME280;63511;49.346;8.798;2023-03-16T02:55:12;100642.06;;;4.33;81.79
61384;BME280;63511;49.346;8.798;2023-03-16T02:57:39;100641.75;;;4.21;82.10
61384;BME280;63511;49.346;8.798;2023-03-16T03:00:07;100638.50;;;4.31;82.17
61384;BME280;63511;49.346;8.798;2023-03-16T03:02:42;100636.88;;;3.89;84.07
61384;BME280;63511;49.346;8.798;2023-03-16T03:05:09;100645.44;;;4.16;83.18
61384;BME280;63511;49.346;8.798;2023-03-16T03:07:36;100641.16;;;3.98;82.92
61384;BME280;63511;49.346;8.798;2023-03-16T03:10:03;100643.50;;;3.97;83.12
61384;BME280;63511;49.346;8.798;2023-03-16T03:12:33;100634.38;;;4.06;82.76
61384;BME280;63511;49.346;8.798;2023-03-16T03:15:03;100632.91;;;4.25;82.24
61384;BME280;63511;49.346;8.798;2023-03-16T03:17:30;100630.91;;;4.30;81.42
61384;BME280;63511;49.346;8.798;2023-03-16T03:19:59;100633.97;;;4.18;81.39
61384;BME280;63511;49.346;8.798;2023-03-16T03:22:26;100630.44;;;4.08;82.04
61384;BME280;63511;49.346;8.798;2023-03-16T03:24:53;100620.72;;;3.94;81.97
61384;BME280;63511;49.346;8.798;2023-03-16T03:27:20;100621.28;;;3.82;83.54
61384;BME280;63511;49.346;8.798;2023-03-16T03:29:46;100612.16;;;3.74;83.98
61384;BME280;63511;49.346;8.798;2023-03-16T03:32:13;100603.97;;;3.93;82.76
61384;BME280;63511;49.346;8.798;2023-03-16T03:34:39;100614.09;;;4.20;81.27
61384;BME280;63511;49.346;8.798;2023-03-16T03:37:08;100625.72;;;3.94;83.11
61384;BME280;63511;49.346;8.798;2023-03-16T03:39:34;100621.75;;;4.04;83.22
61384;BME280;63511;49.346;8.798;2023-03-16T03:42:01;100622.47;;;4.20;82.75
61384;BME280;63511;49.346;8.798;2023-03-16T03:44:27;100623.25;;;4.28;81.90
61384;BME280;63511;49.346;8.798;2023-03-16T03:46:56;100617.66;;;4.22;81.22
61384;BME280;63511;49.346;8.798;2023-03-16T03:49:32;100628.78;;;4.00;81.52
61384;BME280;63511;49.346;8.798;2023-03-16T03:51:58;100621.59;;;4.20;81.20
61384;BME280;63511;49.346;8.798;2023-03-16T03:54:35;100618.97;;;4.18;80.61
61384;BME280;63511;49.346;8.798;2023-03-16T03:57:02;100619.56;;;4.07;81.39
61384;BME280;63511;49.346;8.798;2023-03-16T03:59:28;100612.59;;;3.79;81.95
61384;BME280;63511;49.346;8.798;2023-03-16T04:01:55;100619.53;;;3.81;82.85
61384;BME280;63511;49.346;8.798;2023-03-16T04:04:22;100621.88;;;3.80;82.72
61384;BME280;63511;49.346;8.798;2023-03-16T04:06:48;100622.78;;;4.15;81.23
61384;BME280;63511;49.346;8.798;2023-03-16T04:09:16;100614.84;;;3.93;81.97
61384;BME280;63511;49.346;8.798;2023-03-16T04:11:44;100606.59;;;3.85;81.50
61384;BME280;63511;49.346;8.798;2023-03-16T04:14:11;100591.72;;;3.70;81.69
61384;BME280;63511;49.346;8.798;2023-03-16T04:16:37;100609.91;;;3.52;82.26
61384;BME280;63511;49.346;8.798;2023-03-16T04:19:04;100619.53;;;3.90;81.96
61384;BME280;63511;49.346;8.798;2023-03-16T04:21:30;100614.13;;;3.44;82.27
61384;BME280;63511;49.346;8.798;2023-03-16T04:23:57;100620.88;;;3.36;83.39
61384;BME280;63511;49.346;8.798;2023-03-16T04:26:26;100619.94;;;3.69;82.60
61384;BME280;63511;49.346;8.798;2023-03-16T04:28:54;100606.72;;;3.78;83.22
61384;BME280;63511;49.346;8.798;2023-03-16T04:31:20;100615.09;;;3.79;83.20
61384;BME280;63511;49.346;8.798;2023-03-16T04:33:47;100615.41;;;3.99;81.57
61384;BME280;63511;49.346;8.798;2023-03-16T04:36:14;100618.94;;;3.84;81.87
61384;BME280;63511;49.346;8.798;2023-03-16T04:38:40;100620.84;;;3.95;81.54
61384;BME280;63511;49.346;8.798;2023-03-16T04:41:08;100620.16;;;4.13;80.87
61384;BME280;63511;49.346;8.798;2023-03-16T04:43:35;100611.59;;;3.77;81.26
61384;BME280;63511;49.346;8.798;2023-03-16T04:46:03;100617.69;;;3.55;82.66
61384;BME280;63511;49.346;8.798;2023-03-16T04:48:31;100614.25;;;3.87;82.23
61384;BME280;63511;49.346;8.798;2023-03-16T04:50:58;100616.25;;;3.65;81.99
61384;BME280;63511;49.346;8.798;2023-03-16T04:53:26;100614.66;;;3.74;81.45
61384;BME280;63511;49.346;8.798;2023-03-16T04:55:52;100620.69;;;3.68;81.55
61384;BME280;63511;49.346;8.798;2023-03-16T04:58:22;100609.66;;;3.66;80.90
61384;BME280;63511;49.346;8.798;2023-03-16T05:00:50;100610.38;;;3.65;81.24
61384;BME280;63511;49.346;8.798;2023-03-16T05:03:18;100606.81;;;3.13;82.00
61384;BME280;63511;49.346;8.798;2023-03-16T05:05:46;100597.81;;;3.39;81.30
61384;BME280;63511;49.346;8.798;2023-03-16T05:08:12;100600.50;;;3.16;81.86
61384;BME280;63511;49.346;8.798;2023-03-16T05:10:39;100581.84;;;3.04;81.95
61384;BME280;63511;49.346;8.798;2023-03-16T05:13:06;100602.19;;;3.24;82.31
61384;BME280;63511;49.346;8.798;2023-03-16T05:15:32;100605.94;;;3.12;81.90
61384;BME280;63511;49.346;8.798;2023-03-16T05:17:59;100596.09;;;3.05;82.38
61384;BME280;63511;49.346;8.798;2023-03-16T05:20:27;100606.25;;;2.82;82.71
61384;BME280;63511;49.346;8.798;2023-03-16T05:22:54;100602.44;;;3.10;82.16
61384;BME280;63511;49.346;8.798;2023-03-16T05:25:21;100588.97;;;3.25;81.55
61384;BME280;63511;49.346;8.798;2023-03-16T05:27:50;100598.88;;;3.41;81.12
61384;BME280;63511;49.346;8.798;2023-03-16T05:30:18;100599.16;;;3.03;81.81
61384;BME280;63511;49.346;8.798;2023-03-16T05:32:45;100611.06;;;3.05;81.87
61384;BME280;63511;49.346;8.798;2023-03-16T05:35:12;100607.09;;;3.07;82.29
61384;BME280;63511;49.346;8.798;2023-03-16T05:37:41;100603.16;;;3.09;82.16
61384;BME280;63511;49.346;8.798;2023-03-16T05:40:09;100599.31;;;2.80;82.58
61384;BME280;63511;49.346;8.798;2023-03-16T05:42:42;100598.72;;;2.74;83.29
61384;BME280;63511;49.346;8.798;2023-03-16T05:45:09;100593.28;;;2.69;83.23
61384;BME280;63511;49.346;8.798;2023-03-16T05:47:36;100601.34;;;2.75;83.01
61384;BME280;63511;49.346;8.798;2023-03-16T05:50:03;100601.81;;;2.80;83.17
61384;BME280;63511;49.346;8.798;2023-03-16T05:52:30;100593.59;;;2.81;83.11
61384;BME280;63511;49.346;8.798;2023-03-16T05:54:59;100597.16;;;2.83;82.98
61384;BME280;63511;49.346;8.798;2023-03-16T05:57:25;100593.09;;;2.68;83.58
61384;BME280;63511;49.346;8.798;2023-03-16T05:59:52;100591.25;;;2.74;82.71
61384;BME280;63511;49.346;8.798;2023-03-16T06:02:18;100584.97;;;2.86;83.15
61384;BME280;63511;49.346;8.798;2023-03-16T06:04:45;100580.75;;;2.85;82.87
61384;BME280;63511;49.346;8.798;2023-03-16T06:07:12;100582.75;;;3.13;82.89
61384;BME280;63511;49.346;8.798;2023-03-16T06:09:38;100580.59;;;2.83;82.70
61384;BME280;63511;49.346;8.798;2023-03-16T06:12:06;100553.53;;;3.12;82.36
61384;BME280;63511;49.346;8.798;2023-03-16T06:14:33;100569.41;;;3.21;81.61
61384;BME280;63511;49.346;8.798;2023-03-16T06:17:00;100571.81;;;3.28;81.40
61384;BME280;63511;49.346;8.798;2023-03-16T06:19:27;100568.16;;;3.33;80.61
61384;BME280;63511;49.346;8.798;2023-03-16T06:21:53;100575.38;;;3.48;80.38
61384;BME280;63511;49.346;8.798;2023-03-16T06:24:20;100578.91;;;3.50;79.56
61384;BME280;63511;49.346;8.798;2023-03-16T06:26:46;100577.03;;;3.56;80.06
61384;BME280;63511;49.346;8.798;2023-03-16T06:29:14;100568.75;;;3.39;79.91
61384;BME280;63511;49.346;8.798;2023-03-16T06:31:41;100568.84;;;3.15;82.97
61384;BME280;63511;49.346;8.798;2023-03-16T06:34:07;100571.31;;;3.57;80.58
61384;BME280;63511;49.346;8.798;2023-03-16T06:36:34;100569.81;;;3.59;80.40
61384;BME280;63511;49.346;8.798;2023-03-16T06:39:03;100569.38;;;3.54;81.56
61384;BME280;63511;49.346;8.798;2023-03-16T06:41:29;100570.19;;;3.20;82.65
61384;BME280;63511;49.346;8.798;2023-03-16T06:43:56;100583.06;;;3.66;81.32
61384;BME280;63511;49.346;8.798;2023-03-16T06:46:24;100575.13;;;3.79;79.82
61384;BME280;63511;49.346;8.798;2023-03-16T06:48:51;100583.19;;;3.51;81.36
61384;BME280;63511;49.346;8.798;2023-03-16T06:51:17;100581.84;;;3.54;81.51
61384;BME280;63511;49.346;8.798;2023-03-16T06:53:44;100587.00;;;3.64;81.12
61384;BME280;63511;49.346;8.798;2023-03-16T06:56:10;100581.47;;;3.93;81.17
61384;BME280;63511;49.346;8.798;2023-03-16T06:58:37;100581.94;;;3.97;80.75
61384;BME280;63511;49.346;8.798;2023-03-16T07:01:04;100583.53;;;4.40;79.54
61384;BME280;63511;49.346;8.798;2023-03-16T07:03:32;100582.50;;;4.20;80.08
61384;BME280;63511;49.346;8.798;2023-03-16T07:05:58;100570.88;;;4.38;79.72
61384;BME280;63511;49.346;8.798;2023-03-16T07:08:25;100586.53;;;4.80;78.57
61384;BME280;63511;49.346;8.798;2023-03-16T07:10:52;100576.69;;;4.73;78.15
61384;BME280;63511;49.346;8.798;2023-03-16T07:13:20;100592.00;;;4.67;79.13
61384;BME280;63511;49.346;8.798;2023-03-16T07:15:49;100585.69;;;4.71;79.60
61384;BME280;63511;49.346;8.798;2023-03-16T07:18:17;100589.25;;;4.56;79.64
61384;BME280;63511;49.346;8.798;2023-03-16T07:20:45;100589.69;;;4.60;80.09
61384;BME280;63511;49.346;8.798;2023-03-16T07:23:13;100583.06;;;4.52;80.91
61384;BME280;63511;49.346;8.798;2023-03-16T07:25:40;100587.75;;;5.11;79.19
61384;BME280;63511;49.346;8.798;2023-03-16T07:28:06;100583.59;;;4.76;80.20
61384;BME280;63511;49.346;8.798;2023-03-16T07:30:33;100585.09;;;4.56;80.89
61384;BME280;63511;49.346;8.798;2023-03-16T07:32:59;100586.50;;;4.97;79.68
61384;BME280;63511;49.346;8.798;2023-03-16T07:35:26;100581.69;;;4.82;80.81
61384;BME280;63511;49.346;8.798;2023-03-16T07:37:55;100588.03;;;4.69;80.37
61384;BME280;63511;49.346;8.798;2023-03-16T07:40:21;100598.34;;;4.64;81.44
61384;BME280;63511;49.346;8.798;2023-03-16T07:42:48;100594.69;;;4.60;81.98
61384;BME280;63511;49.346;8.798;2023-03-16T07:45:14;100592.34;;;4.98;80.91
61384;BME280;63511;49.346;8.798;2023-03-16T07:47:42;100588.94;;;5.06;80.51
61384;BME280;63511;49.346;8.798;2023-03-16T07:50:09;100591.16;;;5.11;80.99
61384;BME280;63511;49.346;8.798;2023-03-16T07:52:37;100590.75;;;5.80;79.83
61384;BME280;63511;49.346;8.798;2023-03-16T07:55:06;100586.00;;;5.92;79.02
61384;BME280;63511;49.346;8.798;2023-03-16T07:57:33;100592.19;;;5.68;78.04
61384;BME280;63511;49.346;8.798;2023-03-16T07:59:59;100587.25;;;5.78;77.11
61384;BME280;63511;49.346;8.798;2023-03-16T08:02:29;100572.47;;;5.90;78.72
61384;BME280;63511;49.346;8.798;2023-03-16T08:04:56;100583.78;;;5.95;76.36
61384;BME280;63511;49.346;8.798;2023-03-16T08:07:23;100585.28;;;5.84;76.50
61384;BME280;63511;49.346;8.798;2023-03-16T08:09:49;100579.00;;;5.79;77.58
61384;BME280;63511;49.346;8.798;2023-03-16T08:12:18;100565.66;;;6.08;75.20
61384;BME280;63511;49.346;8.798;2023-03-16T08:14:45;100560.19;;;6.12;76.07
61384;BME280;63511;49.346;8.798;2023-03-16T08:17:12;100564.09;;;6.37;76.09
61384;BME280;63511;49.346;8.798;2023-03-16T08:19:38;100561.06;;;6.12;75.80
61384;BME280;63511;49.346;8.798;2023-03-16T08:22:06;100553.53;;;6.12;75.15
61384;BME280;63511;49.346;8.798;2023-03-16T08:24:33;100567.00;;;6.42;75.10
61384;BME280;63511;49.346;8.798;2023-03-16T08:27:00;100548.34;;;6.77;73.61
61384;BME280;63511;49.346;8.798;2023-03-16T08:29:27;100551.97;;;6.80;72.79
61384;BME280;63511;49.346;8.798;2023-03-16T08:31:55;100557.44;;;7.05;72.07
61384;BME280;63511;49.346;8.798;2023-03-16T08:34:22;100559.97;;;6.66;73.37
61384;BME280;63511;49.346;8.798;2023-03-16T08:36:49;100559.31;;;7.08;72.78
61384;BME280;63511;49.346;8.798;2023-03-16T08:39:15;100543.59;;;6.90;73.16
61384;BME280;63511;49.346;8.798;2023-03-16T08:41:42;100548.06;;;7.33;72.92
61384;BME280;63511;49.346;8.798;2023-03-16T08:44:10;100538.97;;;7.05;72.88
61384;BME280;63511;49.346;8.798;2023-03-16T08:46:38;100538.25;;;7.26;72.94
61384;BME280;63511;49.346;8.798;2023-03-16T08:49:06;100537.88;;;7.72;72.13
61384;BME280;63511;49.346;8.798;2023-03-16T08:51:33;100542.81;;;7.60;71.30
61384;BME280;63511;49.346;8.798;2023-03-16T08:53:59;100546.06;;;7.59;72.19
61384;BME280;63511;49.346;8.798;2023-03-16T08:56:26;100518.81;;;7.44;71.50
61384;BME280;63511;49.346;8.798;2023-03-16T08:58:54;100537.13;;;7.73;70.70
61384;BME280;63511;49.346;8.798;2023-03-16T09:01:21;100511.47;;;7.97;69.83
61384;BME280;63511;49.346;8.798;2023-03-16T09:03:51;100503.56;;;8.25;70.30
61384;BME280;63511;49.346;8.798;2023-03-16T09:06:17;100526.03;;;8.01;69.94
61384;BME280;63511;49.346;8.798;2023-03-16T09:08:44;100525.69;;;7.87;69.80
61384;BME280;63511;49.346;8.798;2023-03-16T09:11:13;100521.53;;;8.29;70.63
61384;BME280;63511;49.346;8.798;2023-03-16T09:13:41;100516.91;;;7.51;70.83
61384;BME280;63511;49.346;8.798;2023-03-16T09:16:11;100498.75;;;7.96;69.79
61384;BME280;63511;49.346;8.798;2023-03-16T09:18:38;100505.31;;;8.26;71.02
61384;BME280;63511;49.346;8.798;2023-03-16T09:21:07;100514.94;;;8.51;69.41
61384;BME280;63511;49.346;8.798;2023-03-16T09:23:35;100509.38;;;8.34;70.42
61384;BME280;63511;49.346;8.798;2023-03-16T09:26:06;100515.94;;;8.53;69.27
61384;BME280;63511;49.346;8.798;2023-03-16T09:28:34;100514.56;;;8.79;68.48
61384;BME280;63511;49.346;8.798;2023-03-16T09:31:03;100515.50;;;8.69;67.71
61384;BME280;63511;49.346;8.798;2023-03-16T09:33:30;100513.97;;;9.15;66.75
61384;BME280;63511;49.346;8.798;2023-03-16T09:35:58;100517.78;;;8.88;68.13
61384;BME280;63511;49.346;8.798;2023-03-16T09:38:26;100513.41;;;8.85;68.20
61384;BME280;63511;49.346;8.798;2023-03-16T09:40:56;100512.53;;;9.18;66.23
61384;BME280;63511;49.346;8.798;2023-03-16T09:43:36;100509.25;;;9.64;66.44
61384;BME280;63511;49.346;8.798;2023-03-16T09:46:10;100520.81;;;9.06;65.76
61384;BME280;63511;49.346;8.798;2023-03-16T09:48:40;100516.53;;;9.38;65.44
61384;BME280;63511;49.346;8.798;2023-03-16T09:51:13;100515.56;;;9.36;64.78
61384;BME280;63511;49.346;8.798;2023-03-16T09:53:45;100510.44;;;9.46;64.68
61384;BME280;63511;49.346;8.798;2023-03-16T09:56:26;100496.94;;;8.79;64.15
61384;BME280;63511;49.346;8.798;2023-03-16T09:58:54;100494.94;;;9.30;65.08
61384;BME280;63511;49.346;8.798;2023-03-16T10:01:26;100490.22;;;9.91;63.59
61384;BME280;63511;49.346;8.798;2023-03-16T10:04:07;100482.41;;;9.76;63.34
61384;BME280;63511;49.346;8.798;2023-03-16T10:06:39;100480.34;;;9.71;64.26
61384;BME280;63511;49.346;8.798;2023-03-16T10:09:21;100479.03;;;9.88;64.17
61384;BME280;63511;49.346;8.798;2023-03-16T10:11:52;100477.38;;;10.11;64.07
61384;BME280;63511;49.346;8.798;2023-03-16T10:14:29;100472.44;;;9.90;63.01
61384;BME280;63511;49.346;8.798;2023-03-16T10:17:00;100469.16;;;10.14;63.73
61384;BME280;63511;49.346;8.798;2023-03-16T10:19:35;100471.16;;;10.30;62.51
61384;BME280;63511;49.346;8.798;2023-03-16T10:22:14;100465.72;;;10.37;62.53
61384;BME280;63511;49.346;8.798;2023-03-16T10:24:50;100473.31;;;9.90;62.69
61384;BME280;63511;49.346;8.798;2023-03-16T10:27:24;100471.47;;;10.22;62.77
61384;BME280;63511;49.346;8.798;2023-03-16T10:29:53;100464.22;;;10.39;61.88
61384;BME280;63511;49.346;8.798;2023-03-16T10:32:21;100458.28;;;10.38;62.31
61384;BME280;63511;49.346;8.798;2023-03-16T10:34:54;100454.69;;;10.71;61.07
61384;BME280;63511;49.346;8.798;2023-03-16T10:37:24;100457.25;;;11.09;60.75
61384;BME280;63511;49.346;8.798;2023-03-16T10:39:53;100465.38;;;10.55;62.43
61384;BME280;63511;49.346;8.798;2023-03-16T10:42:20;100463.97;;;10.47;63.50
61384;BME280;63511;49.346;8.798;2023-03-16T10:44:47;100463.19;;;11.09;59.49
61384;BME280;63511;49.346;8.798;2023-03-16T10:47:20;100469.25;;;10.75;61.72
61384;BME280;63511;49.346;8.798;2023-03-16T10:49:48;100462.41;;;11.11;60.31
61384;BME280;63511;49.346;8.798;2023-03-16T10:52:18;100457.09;;;10.94;59.51
61384;BME280;63511;49.346;8.798;2023-03-16T10:54:49;100444.53;;;11.07;59.61
61384;BME280;63511;49.346;8.798;2023-03-16T10:57:23;100445.22;;;10.93;61.11
61384;BME280;63511;49.346;8.798;2023-03-16T10:59:52;100451.25;;;11.20;60.64
61384;BME280;63511;49.346;8.798;2023-03-16T11:02:21;100452.78;;;11.43;59.15
61384;BME280;63511;49.346;8.798;2023-03-16T11:04:50;100433.97;;;11.90;58.07
61384;BME280;63511;49.346;8.798;2023-03-16T11:07:20;100429.84;;;11.66;59.41
61384;BME280;63511;49.346;8.798;2023-03-16T11:09:49;100437.81;;;11.72;57.70
61384;BME280;63511;49.346;8.798;2023-03-16T11:12:23;100431.34;;;11.76;58.44
61384;BME280;63511;49.346;8.798;2023-03-16T11:14:51;100418.47;;;11.99;57.58
61384;BME280;63511;49.346;8.798;2023-03-16T11:17:22;100416.59;;;11.57;57.93
61384;BME280;63511;49.346;8.798;2023-03-16T11:19:51;100411.44;;;11.56;61.06
61384;BME280;63511;49.346;8.798;2023-03-16T11:22:21;100419.56;;;11.89;57.49
61384;BME280;63511;49.346;8.798;2023-03-16T11:24:51;100423.75;;;11.89;58.03
61384;BME280;63511;49.346;8.798;2023-03-16T11:27:24;100422.56;;;11.97;56.59
61384;BME280;63511;49.346;8.798;2023-03-16T11:29:59;100410.84;;;11.46;58.81
61384;BME280;63511;49.346;8.798;2023-03-16T11:32:31;100408.34;;;11.99;57.56
61384;BME280;63511;49.346;8.798;2023-03-16T11:34:58;100400.31;;;12.60;55.57
61384;BME280;63511;49.346;8.798;2023-03-16T11:37:37;100401.47;;;12.38;56.35
61384;BME280;63511;49.346;8.798;2023-03-16T11:40:16;100384.31;;;12.33;55.54
61384;BME280;63511;49.346;8.798;2023-03-16T11:42:52;100390.28;;;12.62;57.17
61384;BME280;63511;49.346;8.798;2023-03-16T11:45:27;100379.03;;;12.44;56.83
61384;BME280;63511;49.346;8.798;2023-03-16T11:48:14;100389.13;;;12.85;56.26
61384;BME280;63511;49.346;8.798;2023-03-16T11:50:52;100388.19;;;12.69;57.81
61384;BME280;63511;49.346;8.798;2023-03-16T11:53:31;100381.81;;;12.61;55.91
61384;BME280;63511;49.346;8.798;2023-03-16T11:56:10;100383.34;;;11.77;56.75
61384;BME280;63511;49.346;8.798;2023-03-16T11:58:50;100367.69;;;11.83;57.28
61384;BME280;63511;49.346;8.798;2023-03-16T12:01:23;100361.28;;;12.44;58.39
61384;BME280;63511;49.346;8.798;2023-03-16T12:04:01;100365.94;;;12.78;56.50
61384;BME280;63511;49.346;8.798;2023-03-16T12:06:42;100358.25;;;13.06;53.58
61384;BME280;63511;49.346;8.798;2023-03-16T12:09:37;100356.97;;;13.28;53.39
61384;BME280;63511;49.346;8.798;2023-03-16T12:12:21;100360.25;;;13.71;54.94
61384;BME280;63511;49.346;8.798;2023-03-16T12:15:08;100350.66;;;12.92;53.81
61384;BME280;63511;49.346;8.798;2023-03-16T12:17:41;100355.56;;;12.89;54.50
61384;BME280;63511;49.346;8.798;2023-03-16T12:20:15;100357.81;;;12.84;53.50
61384;BME280;63511;49.346;8.798;2023-03-16T12:22:47;100349.84;;;12.63;54.43
61384;BME280;63511;49.346;8.798;2023-03-16T12:25:17;100344.84;;;12.65;53.85
61384;BME280;63511;49.346;8.798;2023-03-16T12:27:51;100342.78;;;12.72;53.75
61384;BME280;63511;49.346;8.798;2023-03-16T12:30:27;100338.72;;;13.18;54.18
61384;BME280;63511;49.346;8.798;2023-03-16T12:33:00;100338.59;;;13.46;52.46
61384;BME280;63511;49.346;8.798;2023-03-16T12:35:37;100335.75;;;13.71;51.67
61384;BME280;63511;49.346;8.798;2023-03-16T12:38:27;100329.69;;;13.69;52.16
61384;BME280;63511;49.346;8.798;2023-03-16T12:41:05;100326.75;;;13.61;52.72
61384;BME280;63511;49.346;8.798;2023-03-16T12:43:49;100332.06;;;13.21;51.68
61384;BME280;63511;49.346;8.798;2023-03-16T12:46:24;100322.56;;;13.78;50.93
61384;BME280;63511;49.346;8.798;2023-03-16T12:48:56;100310.75;;;13.79;51.03
61384;BME280;63511;49.346;8.798;2023-03-16T12:51:31;100309.00;;;14.09;53.28
61384;BME280;63511;49.346;8.798;2023-03-16T12:53:58;100300.00;;;14.31;49.48
61384;BME280;63511;49.346;8.798;2023-03-16T12:56:27;100295.16;;;14.36;50.68
61384;BME280;63511;49.346;8.798;2023-03-16T12:58:56;100306.81;;;13.68;50.67
61384;BME280;63511;49.346;8.798;2023-03-16T13:01:27;100303.19;;;13.95;52.39
61384;BME280;63511;49.346;8.798;2023-03-16T13:03:59;100300.75;;;14.29;48.49
61384;BME280;63511;49.346;8.798;2023-03-16T13:06:31;100298.84;;;13.61;49.68
61384;BME280;63511;49.346;8.798;2023-03-16T13:09:00;100287.63;;;14.21;52.15